createdAt,value
2018-04-27T00:00:04.223Z,1.33
2018-04-27T00:02:38.481Z,1.30
2018-04-27T00:05:12.839Z,1.10
2018-04-27T00:07:48.764Z,1.80
2018-04-27T00:10:23.166Z,1.30
2018-04-27T00:12:57.635Z,1.47
2018-04-27T00:15:32.132Z,1.60
2018-04-27T00:18:06.409Z,1.70
2018-04-27T00:20:40.903Z,1.37
2018-04-27T00:23:15.361Z,1.50
2018-04-27T00:25:50.424Z,1.50
2018-04-27T00:28:24.837Z,1.47
2018-04-27T00:30:59.953Z,1.70
2018-04-27T00:33:34.397Z,1.20
2018-04-27T00:36:08.704Z,1.33
2018-04-27T00:38:43.235Z,1.60
2018-04-27T00:41:17.560Z,1.60
2018-04-27T00:43:52.072Z,1.50
2018-04-27T00:46:26.503Z,1.60
2018-04-27T00:49:00.950Z,1.50
2018-04-27T00:51:35.358Z,1.40
2018-04-27T00:54:09.773Z,1.70
2018-04-27T00:56:44.216Z,1.70
2018-04-27T00:59:18.702Z,1.60
2018-04-27T01:01:53.158Z,1.70
2018-04-27T01:04:27.674Z,1.50
2018-04-27T01:07:02.111Z,1.50
2018-04-27T01:09:36.437Z,1.90
2018-04-27T01:12:10.713Z,1.43
2018-04-27T01:14:45.016Z,1.80
2018-04-27T01:17:19.439Z,1.80
2018-04-27T01:19:53.791Z,1.63
2018-04-27T01:22:28.118Z,1.67
2018-04-27T01:25:02.525Z,1.60
2018-04-27T01:27:36.925Z,1.60
2018-04-27T01:30:11.308Z,1.60
2018-04-27T01:32:45.597Z,1.97
2018-04-27T01:35:20.008Z,1.70
2018-04-27T01:37:55.201Z,2.20
2018-04-27T01:40:29.456Z,2.00
2018-04-27T01:43:03.900Z,2.07
2018-04-27T01:45:38.209Z,2.03
2018-04-27T01:48:12.725Z,1.40
2018-04-27T01:50:47.153Z,1.90
2018-04-27T01:53:22.251Z,1.83
2018-04-27T01:55:56.645Z,1.73
2018-04-27T01:58:31.129Z,1.73
2018-04-27T02:01:05.529Z,2.03
2018-04-27T02:03:40.249Z,1.57
2018-04-27T02:06:14.661Z,2.00
2018-04-27T02:08:49.121Z,1.77
2018-04-27T02:11:23.541Z,2.77
2018-04-27T02:13:57.841Z,1.80
2018-04-27T02:16:32.149Z,1.73
2018-04-27T02:19:06.573Z,2.23
2018-04-27T02:21:41.624Z,1.90
2018-04-27T02:24:16.067Z,2.00
2018-04-27T02:26:51.273Z,1.97
2018-04-27T02:29:25.788Z,1.80
2018-04-27T02:32:00.144Z,1.50
2018-04-27T02:34:34.422Z,2.20
2018-04-27T02:37:08.965Z,1.80
2018-04-27T02:39:43.256Z,2.00
2018-04-27T02:42:17.576Z,1.83
2018-04-27T02:44:51.882Z,3.17
2018-04-27T02:47:26.357Z,1.80
2018-04-27T02:50:00.898Z,1.77
2018-04-27T02:52:35.156Z,1.43
2018-04-27T02:55:09.482Z,1.40
2018-04-27T02:57:43.815Z,1.47
2018-04-27T03:00:18.147Z,1.40
2018-04-27T03:02:52.432Z,1.30
2018-04-27T03:05:26.737Z,1.60
2018-04-27T03:08:01.057Z,1.40
2018-04-27T03:10:35.796Z,1.57
2018-04-27T03:13:10.249Z,1.60
2018-04-27T03:15:44.660Z,1.23
2018-04-27T03:18:18.999Z,1.67
2018-04-27T03:20:53.312Z,1.40
2018-04-27T03:23:27.633Z,1.70
2018-04-27T03:26:01.984Z,1.37
2018-04-27T03:28:36.371Z,1.40
2018-04-27T03:31:10.638Z,1.63
2018-04-27T03:33:44.943Z,1.30
2018-04-27T03:36:19.233Z,1.50
2018-04-27T03:38:53.730Z,1.50
2018-04-27T03:41:28.025Z,1.50
2018-04-27T03:44:02.339Z,1.40
2018-04-27T03:46:36.679Z,1.33
2018-04-27T03:49:10.997Z,1.50
2018-04-27T03:51:45.304Z,1.70
2018-04-27T03:54:20.514Z,1.40
2018-04-27T03:56:55.013Z,1.77
2018-04-27T03:59:41.281Z,1.80
2018-04-27T04:02:27.671Z,1.67
2018-04-27T04:05:15.518Z,1.90
2018-04-27T04:07:49.918Z,2.10
2018-04-27T04:10:24.470Z,1.60
2018-04-27T04:12:58.962Z,1.87
2018-04-27T04:15:33.300Z,1.40
2018-04-27T04:18:07.804Z,1.60
2018-04-27T04:20:42.125Z,1.77
2018-04-27T04:23:16.537Z,1.70
2018-04-27T04:25:51.612Z,1.60
2018-04-27T04:28:25.883Z,1.80
2018-04-27T04:31:00.252Z,1.63
2018-04-27T04:33:34.528Z,1.63
2018-04-27T04:36:09.031Z,1.60
2018-04-27T04:38:43.371Z,1.50
2018-04-27T04:41:17.794Z,1.63
2018-04-27T04:43:52.139Z,1.70
2018-04-27T04:46:26.889Z,1.50
2018-04-27T04:49:01.301Z,1.43
2018-04-27T04:51:35.921Z,1.40
2018-04-27T04:54:10.229Z,1.47
2018-04-27T04:56:44.641Z,1.70
2018-04-27T04:59:19.072Z,1.70
2018-04-27T05:01:53.478Z,3.60
2018-04-27T05:04:27.809Z,2.03
2018-04-27T05:07:02.927Z,1.93
2018-04-27T05:09:37.488Z,2.10
2018-04-27T05:12:11.765Z,1.60
2018-04-27T05:14:46.119Z,3.77
2018-04-27T05:17:20.441Z,1.70
2018-04-27T05:19:55.257Z,2.87
2018-04-27T05:22:33.473Z,3.60
2018-04-27T05:25:07.988Z,1.97
2018-04-27T05:27:42.308Z,1.83
2018-04-27T05:30:16.709Z,2.67
2018-04-27T05:32:51.144Z,2.13
2018-04-27T05:35:25.611Z,2.07
2018-04-27T05:38:00.092Z,3.07
2018-04-27T05:40:34.493Z,3.07
2018-04-27T05:43:08.768Z,2.63
2018-04-27T05:45:43.861Z,2.20
2018-04-27T05:48:19.066Z,1.80
2018-04-27T05:50:53.416Z,2.10
2018-04-27T05:53:27.698Z,2.20
2018-04-27T05:56:02.037Z,4.23
2018-04-27T05:58:36.321Z,3.10
2018-04-27T06:01:10.610Z,5.57
2018-04-27T06:03:56.781Z,5.50
2018-04-27T06:06:31.193Z,5.70
2018-04-27T06:09:06.567Z,5.87
2018-04-27T06:11:41.184Z,6.40
2018-04-27T06:14:15.504Z,6.23
2018-04-27T06:16:49.840Z,5.60
2018-04-27T06:19:24.210Z,5.20
2018-04-27T06:21:58.549Z,5.03
2018-04-27T06:24:32.926Z,4.70
2018-04-27T06:27:07.386Z,4.47
2018-04-27T06:29:41.673Z,4.57
2018-04-27T06:32:16.723Z,4.23
2018-04-27T06:34:51.861Z,4.10
2018-04-27T06:37:26.301Z,3.87
2018-04-27T06:40:00.598Z,3.57
2018-04-27T06:42:35.624Z,4.27
2018-04-27T06:45:10.099Z,4.60
2018-04-27T06:47:44.512Z,3.90
2018-04-27T06:50:19.011Z,3.50
2018-04-27T06:52:53.281Z,3.80
2018-04-27T06:55:27.651Z,4.00
2018-04-27T06:58:01.986Z,3.70
2018-04-27T07:00:36.456Z,3.60
2018-04-27T07:03:10.740Z,3.03
2018-04-27T07:05:45.044Z,3.30
2018-04-27T07:08:19.548Z,3.03
2018-04-27T07:10:54.172Z,3.40
2018-04-27T07:13:28.600Z,3.83
2018-04-27T07:16:03.002Z,3.53
2018-04-27T07:18:37.440Z,3.20
2018-04-27T07:21:11.844Z,2.97
2018-04-27T07:23:46.379Z,3.40
2018-04-27T07:26:20.670Z,3.20
2018-04-27T07:28:55.824Z,3.20
2018-04-27T07:31:30.252Z,3.50
2018-04-27T07:34:05.347Z,3.40
2018-04-27T07:36:39.814Z,3.20
2018-04-27T07:39:14.101Z,3.07
2018-04-27T07:41:48.452Z,2.90
2018-04-27T07:44:22.888Z,2.60
2018-04-27T07:46:57.302Z,3.30
2018-04-27T07:49:31.817Z,2.73
2018-04-27T07:52:06.213Z,2.43
2018-04-27T07:54:40.483Z,2.20
2018-04-27T07:57:14.842Z,2.90
2018-04-27T07:59:49.145Z,2.57
2018-04-27T08:02:23.680Z,2.67
2018-04-27T08:04:58.096Z,2.17
2018-04-27T08:07:32.353Z,2.80
2018-04-27T08:10:06.666Z,1.90
2018-04-27T08:12:41.100Z,1.73
2018-04-27T08:15:15.471Z,2.10
2018-04-27T08:17:49.836Z,2.10
2018-04-27T08:20:25.677Z,2.70
2018-04-27T08:22:59.952Z,1.80
2018-04-27T08:25:34.448Z,1.77
2018-04-27T08:28:08.956Z,1.83
2018-04-27T08:30:43.340Z,2.30
2018-04-27T08:33:18.379Z,1.60
2018-04-27T08:35:52.696Z,1.77
2018-04-27T08:38:27.140Z,1.97
2018-04-27T08:41:01.462Z,2.03
2018-04-27T08:43:35.767Z,2.03
2018-04-27T08:46:10.304Z,2.13
2018-04-27T08:48:44.596Z,2.03
2018-04-27T08:51:18.936Z,1.63
2018-04-27T08:53:53.569Z,2.10
2018-04-27T08:56:28.104Z,2.07
2018-04-27T08:59:02.532Z,1.90
2018-04-27T09:01:37.160Z,2.10
2018-04-27T09:04:11.660Z,1.93
2018-04-27T09:06:45.985Z,1.90
2018-04-27T09:09:20.365Z,1.80
2018-04-27T09:11:55.047Z,1.93
2018-04-27T09:14:29.550Z,1.90
2018-04-27T09:17:03.875Z,1.80
2018-04-27T09:19:38.449Z,2.07
2018-04-27T09:22:12.800Z,2.07
2018-04-27T09:24:47.240Z,2.10
2018-04-27T09:27:21.536Z,2.10
2018-04-27T09:29:56.672Z,2.20
2018-04-27T09:32:31.116Z,2.23
2018-04-27T09:35:05.473Z,2.23
2018-04-27T09:37:40.550Z,2.17
2018-04-27T09:40:15.086Z,2.40
2018-04-27T09:42:49.524Z,2.37
2018-04-27T09:45:23.891Z,2.00
2018-04-27T09:47:58.224Z,2.20
2018-04-27T09:50:32.624Z,2.07
2018-04-27T09:53:08.180Z,2.23
2018-04-27T09:55:42.645Z,2.27
2018-04-27T09:58:17.844Z,2.00
2018-04-27T10:00:52.188Z,2.50
2018-04-27T10:03:26.432Z,2.00
2018-04-27T10:06:00.820Z,2.43
2018-04-27T10:08:35.176Z,2.50
2018-04-27T10:11:09.549Z,2.50
2018-04-27T10:13:43.848Z,2.57
2018-04-27T10:16:18.105Z,2.77
2018-04-27T10:18:52.528Z,2.40
2018-04-27T10:21:26.941Z,2.60
2018-04-27T10:24:01.282Z,2.70
2018-04-27T10:26:35.549Z,2.40
2018-04-27T10:29:10.011Z,2.60
2018-04-27T10:31:44.453Z,2.50
2018-04-27T10:34:18.726Z,2.63
2018-04-27T10:36:53.876Z,2.90
2018-04-27T10:39:28.185Z,2.33
2018-04-27T10:42:02.730Z,2.43
2018-04-27T10:44:37.136Z,2.20
2018-04-27T10:47:11.555Z,2.10
2018-04-27T10:49:45.855Z,2.30
2018-04-27T10:52:20.169Z,2.20
2018-04-27T10:54:54.476Z,2.13
2018-04-27T10:57:28.820Z,2.67
2018-04-27T11:00:03.074Z,2.50
2018-04-27T11:02:37.478Z,2.67
2018-04-27T11:05:12.024Z,2.10
2018-04-27T11:07:47.100Z,2.40
2018-04-27T11:10:21.414Z,2.10
2018-04-27T11:12:55.754Z,3.07
2018-04-27T11:15:30.243Z,2.80
2018-04-27T11:18:04.633Z,2.43
2018-04-27T11:20:38.993Z,2.00
2018-04-27T11:23:13.471Z,2.50
2018-04-27T11:25:47.968Z,2.00
2018-04-27T11:28:22.516Z,2.50
2018-04-27T11:30:56.755Z,3.07
2018-04-27T11:33:31.033Z,2.40
2018-04-27T11:36:06.384Z,2.53
2018-04-27T11:38:40.892Z,2.57
2018-04-27T11:41:16.020Z,2.60
2018-04-27T11:43:50.561Z,2.43
2018-04-27T11:46:25.572Z,2.53
2018-04-27T11:49:00.207Z,2.03
2018-04-27T11:51:34.627Z,2.10
2018-04-27T11:54:09.072Z,2.53
2018-04-27T11:56:43.908Z,2.20
2018-04-27T11:59:18.213Z,2.23
2018-04-27T12:01:52.499Z,2.30
2018-04-27T12:04:26.854Z,2.40
2018-04-27T12:07:01.264Z,2.27
2018-04-27T12:09:36.516Z,2.10
2018-04-27T12:12:11.016Z,1.90
2018-04-27T12:14:45.553Z,2.00
2018-04-27T12:17:19.872Z,1.70
2018-04-27T12:19:54.181Z,2.17
2018-04-27T12:22:28.588Z,1.20
2018-04-27T12:25:03.032Z,1.50
2018-04-27T12:27:38.140Z,1.50
2018-04-27T12:30:12.493Z,1.13
2018-04-27T12:32:46.902Z,1.80
2018-04-27T12:35:21.320Z,1.40
2018-04-27T12:37:55.748Z,1.30
2018-04-27T12:40:30.185Z,1.57
2018-04-27T12:43:04.700Z,1.37
2018-04-27T12:45:39.112Z,1.30
2018-04-27T12:51:19.789Z,1.40
2018-04-27T12:53:54.506Z,1.20
2018-04-27T12:56:29.060Z,1.33
2018-04-27T12:59:03.686Z,1.30
2018-04-27T13:01:38.413Z,1.10
2018-04-27T13:04:14.396Z,1.20
2018-04-27T13:06:49.386Z,1.47
2018-04-27T13:09:23.719Z,1.50
2018-04-27T13:14:42.664Z,1.10
2018-04-27T13:17:17.141Z,1.37
2018-04-27T13:19:52.678Z,0.90
2018-04-27T13:22:27.084Z,1.33
2018-04-27T13:25:01.721Z,1.10
2018-04-27T13:27:36.344Z,1.30
2018-04-27T13:30:10.757Z,1.20
2018-04-27T13:32:45.048Z,1.33
2018-04-27T13:35:19.496Z,1.30
2018-04-27T13:37:53.940Z,1.30
2018-04-27T13:40:28.441Z,1.40
2018-04-27T13:43:03.690Z,1.50
2018-04-27T13:45:38.105Z,1.20
2018-04-27T13:48:12.396Z,1.57
2018-04-27T13:50:46.794Z,1.10
2018-04-27T13:53:21.245Z,1.20
2018-04-27T13:55:56.373Z,0.80
2018-04-27T13:58:30.664Z,1.10
2018-04-27T14:01:04.941Z,1.33
2018-04-27T14:03:40.191Z,0.90
2018-04-27T14:06:15.560Z,1.00
2018-04-27T14:08:50.039Z,1.17
2018-04-27T14:11:24.358Z,1.20
2018-04-27T14:13:58.865Z,0.87
2018-04-27T14:16:33.290Z,1.07
2018-04-27T14:19:07.644Z,1.10
2018-04-27T14:21:41.960Z,1.27
2018-04-27T14:24:16.349Z,0.77
2018-04-27T14:26:50.982Z,1.30
2018-04-27T14:29:25.408Z,1.30
2018-04-27T14:31:59.684Z,2.40
2018-04-27T14:34:34.060Z,2.40
2018-04-27T14:37:08.772Z,2.30
2018-04-27T14:39:43.388Z,2.20
2018-04-27T14:42:18.541Z,1.63
2018-04-27T14:44:53.037Z,1.57
2018-04-27T14:47:27.400Z,1.60
2018-04-27T14:50:01.801Z,1.67
2018-04-27T14:52:36.041Z,1.47
2018-04-27T14:55:10.435Z,1.30
2018-04-27T14:57:45.668Z,1.40
2018-04-27T15:00:19.912Z,1.43
2018-04-27T15:02:54.996Z,1.30
2018-04-27T15:05:30.959Z,1.07
2018-04-27T15:08:05.503Z,1.83
2018-04-27T15:10:39.922Z,2.00
2018-04-27T15:13:14.348Z,1.50
2018-04-27T15:15:48.824Z,1.40
2018-04-27T15:18:23.683Z,1.50
2018-04-27T15:20:58.028Z,1.20
2018-04-27T15:23:33.224Z,1.70
2018-04-27T15:26:08.383Z,1.33
2018-04-27T15:28:44.244Z,1.10
2018-04-27T15:31:19.488Z,1.83
2018-04-27T15:33:53.891Z,1.57
2018-04-27T15:36:28.204Z,1.20
2018-04-27T15:39:02.529Z,1.40
2018-04-27T15:41:37.777Z,1.50
2018-04-27T15:44:12.107Z,1.67
2018-04-27T15:46:46.524Z,0.97
2018-04-27T15:49:21.148Z,1.20
2018-04-27T15:51:55.577Z,1.37
2018-04-27T15:54:29.849Z,1.30
2018-04-27T15:57:04.313Z,1.33
2018-04-27T15:59:38.836Z,1.73
2018-04-27T16:02:13.973Z,1.63
2018-04-27T16:04:48.348Z,3.80
2018-04-27T16:07:22.914Z,3.70
2018-04-27T16:09:57.447Z,1.97
2018-04-27T16:12:31.725Z,2.30
2018-04-27T16:15:06.131Z,2.03
2018-04-27T16:17:40.384Z,2.63
2018-04-27T16:20:14.713Z,2.17
2018-04-27T16:22:49.040Z,2.43
2018-04-27T16:25:23.656Z,1.80
2018-04-27T16:27:58.187Z,2.93
2018-04-27T16:30:33.296Z,2.20
2018-04-27T16:33:07.604Z,1.83
2018-04-27T16:35:42.983Z,1.90
2018-04-27T16:38:18.315Z,1.70
2018-04-27T16:40:52.825Z,1.47
2018-04-27T16:43:27.168Z,2.00
2018-04-27T16:46:01.456Z,1.70
2018-04-27T16:48:36.723Z,1.60
2018-04-27T16:51:11.144Z,1.53
2018-04-27T16:53:45.564Z,1.77
2018-04-27T16:56:20.804Z,1.67
2018-04-27T16:58:55.220Z,1.60
2018-04-27T17:01:29.852Z,1.37
2018-04-27T17:04:04.101Z,1.67
2018-04-27T17:06:44.837Z,1.23
2018-04-27T17:09:19.104Z,1.47
2018-04-27T17:11:54.297Z,1.20
2018-04-27T17:14:28.623Z,1.37
2018-04-27T17:17:03.142Z,1.47
2018-04-27T17:19:37.544Z,1.40
2018-04-27T17:22:11.993Z,1.30
2018-04-27T17:24:46.353Z,1.60
2018-04-27T17:27:29.148Z,1.87
2018-04-27T17:30:03.554Z,1.20
2018-04-27T17:32:37.830Z,1.30
2018-04-27T17:35:12.230Z,1.00
2018-04-27T17:37:46.448Z,1.07
2018-04-27T17:40:20.948Z,1.17
2018-04-27T17:42:55.225Z,1.00
2018-04-27T17:45:32.396Z,1.23
2018-04-27T17:48:06.965Z,1.00
2018-04-27T17:50:44.513Z,1.10
2018-04-27T17:53:18.784Z,1.00
2018-04-27T17:55:53.269Z,1.00
2018-04-27T17:58:27.545Z,1.37
2018-04-27T18:01:01.916Z,1.30
2018-04-27T18:03:36.300Z,1.17
2018-04-27T18:06:10.652Z,1.50
2018-04-27T18:08:45.184Z,0.90
2018-04-27T18:11:19.495Z,1.37
2018-04-27T18:13:53.793Z,1.13
2018-04-27T18:16:28.084Z,1.10
2018-04-27T18:19:02.524Z,1.20
2018-04-27T18:21:38.952Z,1.43
2018-04-27T18:24:13.345Z,1.07
2018-04-27T18:26:48.279Z,1.20
2018-04-27T18:29:22.920Z,1.10
2018-04-27T18:31:57.428Z,1.50
2018-04-27T18:34:33.143Z,1.20
2018-04-27T18:37:07.995Z,1.10
2018-04-27T18:39:42.257Z,1.00
2018-04-27T18:42:16.637Z,1.30
2018-04-27T18:44:51.057Z,1.80
2018-04-27T18:47:26.408Z,1.80
2018-04-27T18:50:00.901Z,1.43
2018-04-27T18:52:36.062Z,1.30
2018-04-27T18:55:10.606Z,1.13
2018-04-27T18:57:45.192Z,1.40
2018-04-27T19:00:19.604Z,1.67
2018-04-27T19:02:54.049Z,1.20
2018-04-27T19:05:28.568Z,1.13
2018-04-27T19:08:03.768Z,1.20
2018-04-27T19:10:39.259Z,1.33
2018-04-27T19:13:13.882Z,1.50
2018-04-27T19:15:48.415Z,1.50
2018-04-27T19:18:23.644Z,1.60
2018-04-27T19:20:57.965Z,1.50
2018-04-27T19:23:36.756Z,1.70
2018-04-27T19:26:21.035Z,1.73
2018-04-27T19:28:55.468Z,1.53
2018-04-27T19:31:30.585Z,1.40
2018-04-27T19:34:04.912Z,1.43
2018-04-27T19:36:39.336Z,1.50
2018-04-27T19:39:13.857Z,1.40
2018-04-27T19:41:48.278Z,1.60
2018-04-27T19:44:22.644Z,1.50
2018-04-27T19:46:57.331Z,1.60
2018-04-27T19:49:31.956Z,1.53
2018-04-27T19:52:06.414Z,1.60
2018-04-27T19:54:40.996Z,1.50
2018-04-27T19:57:15.420Z,1.50
2018-04-27T19:59:50.636Z,1.37
2018-04-27T20:02:24.983Z,1.33
2018-04-27T20:04:59.502Z,1.40
2018-04-27T20:07:34.125Z,1.23
2018-04-27T20:10:11.004Z,1.30
2018-04-27T20:12:45.632Z,1.20
2018-04-27T20:15:32.765Z,1.27
2018-04-27T20:18:11.538Z,1.10
2018-04-27T20:20:45.995Z,1.33
2018-04-27T20:23:21.037Z,1.10
2018-04-27T20:25:56.421Z,1.37
2018-04-27T20:28:31.712Z,0.97
2018-04-27T20:31:06.059Z,1.30
2018-04-27T20:33:40.331Z,0.93
2018-04-27T20:36:14.641Z,1.10
2018-04-27T20:38:48.966Z,1.37
2018-04-27T20:41:23.240Z,1.00
2018-04-27T20:43:58.304Z,1.33
2018-04-27T20:46:32.732Z,1.20
2018-04-27T20:49:07.768Z,1.10
2018-04-27T20:51:42.804Z,1.40
2018-04-27T20:54:17.309Z,1.30
2018-04-27T20:56:52.592Z,1.13
2018-04-27T20:59:27.804Z,1.20
2018-04-27T21:02:02.173Z,1.30
2018-04-27T21:04:36.558Z,1.40
2018-04-27T21:07:11.100Z,1.70
2018-04-27T21:09:45.720Z,1.67
2018-04-27T21:12:20.141Z,1.67
2018-04-27T21:14:55.256Z,1.60
2018-04-27T21:17:29.676Z,1.17
2018-04-27T21:20:04.721Z,0.93
2018-04-27T21:22:39.941Z,2.03
2018-04-27T21:25:15.008Z,1.70
2018-04-27T21:27:49.437Z,1.93
2018-04-27T21:30:25.377Z,1.63
2018-04-27T21:33:02.698Z,1.50
2018-04-27T21:35:48.893Z,1.37
2018-04-27T21:41:21.531Z,1.80
2018-04-27T21:44:03.699Z,1.37
2018-04-27T21:46:38.056Z,1.13
2018-04-27T21:49:13.337Z,1.63
2018-04-27T21:51:49.538Z,1.40
2018-04-27T21:54:23.977Z,1.30
2018-04-27T21:57:02.336Z,1.40
2018-04-27T21:59:51.473Z,1.27
2018-04-27T22:02:35.781Z,1.40
2018-04-27T22:05:14.524Z,1.40
2018-04-27T22:07:49.021Z,1.30
2018-04-27T22:10:23.520Z,1.20
2018-04-27T22:12:58.004Z,1.50
2018-04-27T22:15:32.465Z,1.30
2018-04-27T22:18:06.728Z,1.40
2018-04-27T22:20:45.901Z,1.63
2018-04-27T22:23:23.732Z,1.37
2018-04-27T22:28:50.677Z,1.50
2018-04-27T22:31:25.788Z,1.53
2018-04-27T22:34:04.512Z,1.23
2018-04-27T22:36:39.676Z,1.90
2018-04-27T22:39:14.828Z,1.50
2018-04-27T22:41:56.678Z,1.70
2018-04-27T22:47:28.282Z,1.77
2018-04-27T22:50:02.704Z,1.40
2018-04-27T22:52:37.092Z,1.50
2018-04-27T22:55:15.231Z,1.80
2018-04-27T22:57:59.708Z,2.43
2018-04-27T23:00:35.915Z,1.60
2018-04-27T23:03:13.143Z,1.67
2018-04-27T23:05:48.792Z,1.50
2018-04-27T23:08:23.205Z,1.60
2018-04-27T23:14:12.196Z,1.97
2018-04-27T23:16:47.888Z,2.17
2018-04-27T23:19:27.027Z,2.30
2018-04-27T23:22:04.981Z,2.67
2018-04-27T23:24:39.400Z,2.17
2018-04-27T23:27:13.808Z,2.43
2018-04-27T23:29:48.449Z,2.70
2018-04-27T23:32:22.764Z,2.83
2018-04-27T23:34:57.039Z,2.53
2018-04-27T23:37:31.615Z,2.83
2018-04-27T23:40:06.125Z,2.77
2018-04-27T23:42:41.548Z,2.70
2018-04-27T23:45:15.833Z,3.10
2018-04-27T23:47:50.112Z,2.90
2018-04-27T23:50:24.526Z,3.17
2018-04-27T23:52:58.944Z,3.80
2018-04-27T23:55:42.180Z,4.00
2018-04-27T23:58:16.424Z,3.10
